sensor_id;sensor_type;location;lat;lon;timestamp;P1;durP1;ratioP1;P2;durP2;ratioP2
14292;SDS011;62290;59.420;17.842;2022-10-16T00:00:57;5.32;;;4.75;;
14292;SDS011;62290;59.420;17.842;2022-10-16T00:03:25;5.43;;;4.50;;
14292;SDS011;62290;59.420;17.842;2022-10-16T00:05:58;5.55;;;4.80;;
14292;SDS011;62290;59.420;17.842;2022-10-16T00:08:26;6.13;;;4.68;;
14292;SDS011;62290;59.420;17.842;2022-10-16T00:11:00;4.78;;;4.30;;
14292;SDS011;62290;59.420;17.842;2022-10-16T00:13:29;5.47;;;4.18;;
14292;SDS011;62290;59.420;17.842;2022-10-16T00:15:58;5.32;;;4.60;;
14292;SDS011;62290;59.420;17.842;2022-10-16T00:18:27;4.65;;;4.07;;
14292;SDS011;62290;59.420;17.842;2022-10-16T00:21:00;4.55;;;4.10;;
14292;SDS011;62290;59.420;17.842;2022-10-16T00:23:30;5.57;;;4.38;;
14292;SDS011;62290;59.420;17.842;2022-10-16T00:26:00;4.57;;;4.05;;
14292;SDS011;62290;59.420;17.842;2022-10-16T00:28:31;4.25;;;3.85;;
14292;SDS011;62290;59.420;17.842;2022-10-16T00:31:02;5.32;;;4.43;;
14292;SDS011;62290;59.420;17.842;2022-10-16T00:33:31;6.20;;;4.30;;
14292;SDS011;62290;59.420;17.842;2022-10-16T00:35:59;4.60;;;4.10;;
14292;SDS011;62290;59.420;17.842;2022-10-16T00:38:28;4.28;;;3.88;;
14292;SDS011;62290;59.420;17.842;2022-10-16T00:40:56;4.57;;;4.07;;
14292;SDS011;62290;59.420;17.842;2022-10-16T00:43:36;5.78;;;4.22;;
14292;SDS011;62290;59.420;17.842;2022-10-16T00:46:10;4.60;;;4.20;;
14292;SDS011;62290;59.420;17.842;2022-10-16T00:48:43;4.20;;;3.75;;
14292;SDS011;62290;59.420;17.842;2022-10-16T00:51:16;3.60;;;3.30;;
14292;SDS011;62290;59.420;17.842;2022-10-16T00:53:46;4.07;;;3.67;;
14292;SDS011;62290;59.420;17.842;2022-10-16T00:56:15;4.75;;;4.25;;
14292;SDS011;62290;59.420;17.842;2022-10-16T00:58:46;4.45;;;3.95;;
14292;SDS011;62290;59.420;17.842;2022-10-16T01:01:14;4.03;;;3.63;;
14292;SDS011;62290;59.420;17.842;2022-10-16T01:03:42;3.80;;;3.50;;
14292;SDS011;62290;59.420;17.842;2022-10-16T01:06:19;5.72;;;4.25;;
14292;SDS011;62290;59.420;17.842;2022-10-16T01:09:02;4.38;;;3.45;;
14292;SDS011;62290;59.420;17.842;2022-10-16T01:11:42;4.30;;;3.90;;
14292;SDS011;62290;59.420;17.842;2022-10-16T01:14:21;5.50;;;4.07;;
14292;SDS011;62290;59.420;17.842;2022-10-16T01:16:53;3.90;;;3.40;;
14292;SDS011;62290;59.420;17.842;2022-10-16T01:19:32;4.78;;;4.25;;
14292;SDS011;62290;59.420;17.842;2022-10-16T01:22:11;4.20;;;3.55;;
14292;SDS011;62290;59.420;17.842;2022-10-16T01:24:41;3.33;;;3.03;;
14292;SDS011;62290;59.420;17.842;2022-10-16T01:27:19;4.47;;;3.70;;
14292;SDS011;62290;59.420;17.842;2022-10-16T01:29:52;4.03;;;3.53;;
14292;SDS011;62290;59.420;17.842;2022-10-16T01:32:26;6.97;;;3.42;;
14292;SDS011;62290;59.420;17.842;2022-10-16T01:34:58;5.60;;;3.22;;
14292;SDS011;62290;59.420;17.842;2022-10-16T01:37:33;6.28;;;3.45;;
14292;SDS011;62290;59.420;17.842;2022-10-16T01:40:07;4.88;;;3.30;;
14292;SDS011;62290;59.420;17.842;2022-10-16T01:42:39;4.03;;;3.40;;
14292;SDS011;62290;59.420;17.842;2022-10-16T01:45:11;4.75;;;3.70;;
14292;SDS011;62290;59.420;17.842;2022-10-16T01:47:44;3.15;;;2.85;;
14292;SDS011;62290;59.420;17.842;2022-10-16T01:50:14;3.50;;;3.15;;
14292;SDS011;62290;59.420;17.842;2022-10-16T01:52:46;4.18;;;3.13;;
14292;SDS011;62290;59.420;17.842;2022-10-16T01:55:19;5.20;;;3.50;;
14292;SDS011;62290;59.420;17.842;2022-10-16T01:57:53;4.07;;;3.67;;
14292;SDS011;62290;59.420;17.842;2022-10-16T02:00:22;3.50;;;3.20;;
14292;SDS011;62290;59.420;17.842;2022-10-16T02:02:53;4.80;;;3.40;;
14292;SDS011;62290;59.420;17.842;2022-10-16T02:05:25;3.72;;;3.33;;
14292;SDS011;62290;59.420;17.842;2022-10-16T02:07:58;3.58;;;3.08;;
14292;SDS011;62290;59.420;17.842;2022-10-16T02:10:31;3.83;;;3.15;;
14292;SDS011;62290;59.420;17.842;2022-10-16T02:13:02;3.63;;;3.17;;
14292;SDS011;62290;59.420;17.842;2022-10-16T02:15:33;7.97;;;3.55;;
14292;SDS011;62290;59.420;17.842;2022-10-16T02:18:01;6.82;;;3.38;;
14292;SDS011;62290;59.420;17.842;2022-10-16T02:20:32;4.10;;;3.25;;
14292;SDS011;62290;59.420;17.842;2022-10-16T02:23:04;3.65;;;3.13;;
14292;SDS011;62290;59.420;17.842;2022-10-16T02:25:37;3.20;;;2.90;;
14292;SDS011;62290;59.420;17.842;2022-10-16T02:28:11;4.25;;;3.70;;
14292;SDS011;62290;59.420;17.842;2022-10-16T02:30:46;7.60;;;4.45;;
14292;SDS011;62290;59.420;17.842;2022-10-16T02:33:18;4.82;;;3.92;;
14292;SDS011;62290;59.420;17.842;2022-10-16T02:35:49;6.93;;;4.32;;
14292;SDS011;62290;59.420;17.842;2022-10-16T02:38:18;5.75;;;4.47;;
14292;SDS011;62290;59.420;17.842;2022-10-16T02:40:48;14.10;;;5.45;;
14292;SDS011;62290;59.420;17.842;2022-10-16T02:43:18;4.53;;;4.05;;
14292;SDS011;62290;59.420;17.842;2022-10-16T02:45:46;5.53;;;4.20;;
14292;SDS011;62290;59.420;17.842;2022-10-16T02:48:14;5.32;;;4.50;;
14292;SDS011;62290;59.420;17.842;2022-10-16T02:50:42;5.07;;;4.45;;
14292;SDS011;62290;59.420;17.842;2022-10-16T02:53:10;5.47;;;4.95;;
14292;SDS011;62290;59.420;17.842;2022-10-16T02:55:38;4.55;;;3.92;;
14292;SDS011;62290;59.420;17.842;2022-10-16T02:58:06;6.05;;;4.13;;
14292;SDS011;62290;59.420;17.842;2022-10-16T03:00:35;4.85;;;4.13;;
14292;SDS011;62290;59.420;17.842;2022-10-16T03:03:03;5.00;;;4.05;;
14292;SDS011;62290;59.420;17.842;2022-10-16T03:05:31;5.63;;;4.18;;
14292;SDS011;62290;59.420;17.842;2022-10-16T03:07:59;5.60;;;4.80;;
14292;SDS011;62290;59.420;17.842;2022-10-16T03:10:27;6.45;;;4.85;;
14292;SDS011;62290;59.420;17.842;2022-10-16T03:12:55;4.60;;;4.18;;
14292;SDS011;62290;59.420;17.842;2022-10-16T03:15:23;4.65;;;4.10;;
14292;SDS011;62290;59.420;17.842;2022-10-16T03:17:53;6.35;;;5.30;;
14292;SDS011;62290;59.420;17.842;2022-10-16T03:20:21;5.70;;;4.70;;
14292;SDS011;62290;59.420;17.842;2022-10-16T03:22:49;5.75;;;4.13;;
14292;SDS011;62290;59.420;17.842;2022-10-16T03:25:17;5.70;;;4.60;;
14292;SDS011;62290;59.420;17.842;2022-10-16T03:27:45;6.57;;;4.65;;
14292;SDS011;62290;59.420;17.842;2022-10-16T03:30:13;5.30;;;4.25;;
14292;SDS011;62290;59.420;17.842;2022-10-16T03:32:41;8.32;;;4.50;;
14292;SDS011;62290;59.420;17.842;2022-10-16T03:35:12;5.43;;;4.38;;
14292;SDS011;62290;59.420;17.842;2022-10-16T03:37:40;5.30;;;4.80;;
14292;SDS011;62290;59.420;17.842;2022-10-16T03:40:08;6.82;;;5.00;;
14292;SDS011;62290;59.420;17.842;2022-10-16T03:42:36;7.68;;;4.30;;
14292;SDS011;62290;59.420;17.842;2022-10-16T03:45:05;5.00;;;4.50;;
14292;SDS011;62290;59.420;17.842;2022-10-16T03:47:33;6.18;;;4.57;;
14292;SDS011;62290;59.420;17.842;2022-10-16T03:50:01;6.15;;;4.43;;
14292;SDS011;62290;59.420;17.842;2022-10-16T03:52:31;5.00;;;4.05;;
14292;SDS011;62290;59.420;17.842;2022-10-16T03:54:59;6.95;;;4.40;;
14292;SDS011;62290;59.420;17.842;2022-10-16T03:57:27;5.43;;;4.20;;
14292;SDS011;62290;59.420;17.842;2022-10-16T03:59:55;6.18;;;4.68;;
14292;SDS011;62290;59.420;17.842;2022-10-16T04:02:23;5.75;;;4.82;;
14292;SDS011;62290;59.420;17.842;2022-10-16T04:04:51;5.15;;;4.30;;
14292;SDS011;62290;59.420;17.842;2022-10-16T04:07:19;7.50;;;4.65;;
14292;SDS011;62290;59.420;17.842;2022-10-16T04:09:48;6.07;;;4.60;;
14292;SDS011;62290;59.420;17.842;2022-10-16T04:12:18;6.00;;;4.20;;
14292;SDS011;62290;59.420;17.842;2022-10-16T04:14:46;5.45;;;4.15;;
14292;SDS011;62290;59.420;17.842;2022-10-16T04:17:14;4.78;;;4.00;;
14292;SDS011;62290;59.420;17.842;2022-10-16T04:19:42;4.30;;;3.90;;
14292;SDS011;62290;59.420;17.842;2022-10-16T04:22:10;4.78;;;4.30;;
14292;SDS011;62290;59.420;17.842;2022-10-16T04:24:39;6.15;;;4.50;;
14292;SDS011;62290;59.420;17.842;2022-10-16T04:27:08;5.88;;;3.92;;
14292;SDS011;62290;59.420;17.842;2022-10-16T04:29:36;4.70;;;3.92;;
14292;SDS011;62290;59.420;17.842;2022-10-16T04:32:04;4.75;;;4.25;;
14292;SDS011;62290;59.420;17.842;2022-10-16T04:34:32;4.60;;;3.85;;
14292;SDS011;62290;59.420;17.842;2022-10-16T04:37:00;5.03;;;3.95;;
14292;SDS011;62290;59.420;17.842;2022-10-16T04:39:28;4.47;;;4.00;;
14292;SDS011;62290;59.420;17.842;2022-10-16T04:41:56;5.70;;;3.67;;
14292;SDS011;62290;59.420;17.842;2022-10-16T04:44:26;5.07;;;4.40;;
14292;SDS011;62290;59.420;17.842;2022-10-16T04:46:54;3.97;;;3.53;;
14292;SDS011;62290;59.420;17.842;2022-10-16T04:49:21;4.28;;;3.88;;
14292;SDS011;62290;59.420;17.842;2022-10-16T04:51:49;4.60;;;3.72;;
14292;SDS011;62290;59.420;17.842;2022-10-16T04:54:18;4.35;;;3.30;;
14292;SDS011;62290;59.420;17.842;2022-10-16T04:56:46;4.53;;;3.17;;
14292;SDS011;62290;59.420;17.842;2022-10-16T04:59:14;5.30;;;3.30;;
14292;SDS011;62290;59.420;17.842;2022-10-16T05:01:43;4.35;;;3.70;;
14292;SDS011;62290;59.420;17.842;2022-10-16T05:04:12;3.88;;;3.58;;
14292;SDS011;62290;59.420;17.842;2022-10-16T05:06:41;4.93;;;3.15;;
14292;SDS011;62290;59.420;17.842;2022-10-16T05:09:09;3.20;;;2.90;;
14292;SDS011;62290;59.420;17.842;2022-10-16T05:11:37;3.80;;;3.22;;
14292;SDS011;62290;59.420;17.842;2022-10-16T05:14:05;5.18;;;3.33;;
14292;SDS011;62290;59.420;17.842;2022-10-16T05:16:33;3.35;;;2.88;;
14292;SDS011;62290;59.420;17.842;2022-10-16T05:19:03;3.47;;;3.17;;
14292;SDS011;62290;59.420;17.842;2022-10-16T05:21:50;3.50;;;3.15;;
14292;SDS011;62290;59.420;17.842;2022-10-16T05:24:18;4.15;;;2.78;;
14292;SDS011;62290;59.420;17.842;2022-10-16T05:26:46;3.33;;;2.63;;
14292;SDS011;62290;59.420;17.842;2022-10-16T05:29:14;4.32;;;2.67;;
14292;SDS011;62290;59.420;17.842;2022-10-16T05:31:42;3.10;;;2.80;;
14292;SDS011;62290;59.420;17.842;2022-10-16T05:34:11;4.50;;;2.75;;
14292;SDS011;62290;59.420;17.842;2022-10-16T05:36:40;3.28;;;2.78;;
14292;SDS011;62290;59.420;17.842;2022-10-16T05:39:07;3.28;;;2.53;;
14292;SDS011;62290;59.420;17.842;2022-10-16T05:41:35;3.00;;;2.75;;
14292;SDS011;62290;59.420;17.842;2022-10-16T05:44:04;3.72;;;2.85;;
14292;SDS011;62290;59.420;17.842;2022-10-16T05:46:32;3.47;;;2.92;;
14292;SDS011;62290;59.420;17.842;2022-10-16T05:49:01;4.13;;;2.65;;
14292;SDS011;62290;59.420;17.842;2022-10-16T05:51:30;4.93;;;3.28;;
14292;SDS011;62290;59.420;17.842;2022-10-16T05:53:58;6.32;;;2.88;;
14292;SDS011;62290;59.420;17.842;2022-10-16T05:56:26;3.55;;;3.10;;
14292;SDS011;62290;59.420;17.842;2022-10-16T05:58:54;3.75;;;2.67;;
14292;SDS011;62290;59.420;17.842;2022-10-16T06:01:22;3.10;;;2.50;;
14292;SDS011;62290;59.420;17.842;2022-10-16T06:03:51;5.75;;;2.92;;
14292;SDS011;62290;59.420;17.842;2022-10-16T06:06:20;4.40;;;2.60;;
14292;SDS011;62290;59.420;17.842;2022-10-16T06:08:51;5.00;;;2.70;;
14292;SDS011;62290;59.420;17.842;2022-10-16T06:11:21;4.28;;;2.55;;
14292;SDS011;62290;59.420;17.842;2022-10-16T06:13:51;3.58;;;2.47;;
14292;SDS011;62290;59.420;17.842;2022-10-16T06:16:19;3.13;;;2.83;;
14292;SDS011;62290;59.420;17.842;2022-10-16T06:18:50;3.58;;;2.47;;
14292;SDS011;62290;59.420;17.842;2022-10-16T06:21:19;5.80;;;2.83;;
14292;SDS011;62290;59.420;17.842;2022-10-16T06:23:48;5.68;;;2.83;;
14292;SDS011;62290;59.420;17.842;2022-10-16T06:26:18;6.15;;;3.00;;
14292;SDS011;62290;59.420;17.842;2022-10-16T06:28:47;4.15;;;2.92;;
14292;SDS011;62290;59.420;17.842;2022-10-16T06:31:15;3.17;;;2.88;;
14292;SDS011;62290;59.420;17.842;2022-10-16T06:33:44;3.05;;;2.75;;
14292;SDS011;62290;59.420;17.842;2022-10-16T06:36:14;3.60;;;2.60;;
14292;SDS011;62290;59.420;17.842;2022-10-16T06:38:43;4.85;;;2.90;;
14292;SDS011;62290;59.420;17.842;2022-10-16T06:41:12;3.78;;;3.10;;
14292;SDS011;62290;59.420;17.842;2022-10-16T06:43:44;4.10;;;3.03;;
14292;SDS011;62290;59.420;17.842;2022-10-16T06:46:13;4.50;;;3.20;;
14292;SDS011;62290;59.420;17.842;2022-10-16T06:48:43;4.32;;;3.28;;
14292;SDS011;62290;59.420;17.842;2022-10-16T06:51:11;4.90;;;2.92;;
14292;SDS011;62290;59.420;17.842;2022-10-16T06:53:42;4.45;;;3.15;;
14292;SDS011;62290;59.420;17.842;2022-10-16T06:56:28;3.22;;;2.92;;
14292;SDS011;62290;59.420;17.842;2022-10-16T06:58:59;3.85;;;2.90;;
14292;SDS011;62290;59.420;17.842;2022-10-16T07:01:28;4.10;;;2.97;;
14292;SDS011;62290;59.420;17.842;2022-10-16T07:03:56;5.10;;;3.10;;
14292;SDS011;62290;59.420;17.842;2022-10-16T07:06:25;4.60;;;3.00;;
14292;SDS011;62290;59.420;17.842;2022-10-16T07:08:54;5.28;;;3.08;;
14292;SDS011;62290;59.420;17.842;2022-10-16T07:11:22;4.30;;;2.72;;
14292;SDS011;62290;59.420;17.842;2022-10-16T07:13:51;4.18;;;3.03;;
14292;SDS011;62290;59.420;17.842;2022-10-16T07:16:23;3.65;;;2.83;;
14292;SDS011;62290;59.420;17.842;2022-10-16T07:18:53;4.70;;;3.15;;
14292;SDS011;62290;59.420;17.842;2022-10-16T07:21:25;2.92;;;2.72;;
14292;SDS011;62290;59.420;17.842;2022-10-16T07:23:55;3.13;;;2.72;;
14292;SDS011;62290;59.420;17.842;2022-10-16T07:26:25;4.43;;;2.72;;
14292;SDS011;62290;59.420;17.842;2022-10-16T07:28:54;3.22;;;2.90;;
14292;SDS011;62290;59.420;17.842;2022-10-16T07:31:23;3.00;;;2.70;;
14292;SDS011;62290;59.420;17.842;2022-10-16T07:33:52;3.15;;;2.85;;
14292;SDS011;62290;59.420;17.842;2022-10-16T07:36:21;4.13;;;2.80;;
14292;SDS011;62290;59.420;17.842;2022-10-16T07:38:49;3.78;;;2.88;;
14292;SDS011;62290;59.420;17.842;2022-10-16T07:41:22;7.15;;;2.90;;
14292;SDS011;62290;59.420;17.842;2022-10-16T07:43:50;3.30;;;2.58;;
14292;SDS011;62290;59.420;17.842;2022-10-16T07:46:21;5.47;;;2.80;;
14292;SDS011;62290;59.420;17.842;2022-10-16T07:48:51;3.95;;;3.10;;
14292;SDS011;62290;59.420;17.842;2022-10-16T07:51:20;4.85;;;2.35;;
14292;SDS011;62290;59.420;17.842;2022-10-16T07:53:50;3.78;;;2.97;;
14292;SDS011;62290;59.420;17.842;2022-10-16T07:56:20;2.92;;;2.42;;
14292;SDS011;62290;59.420;17.842;2022-10-16T07:58:49;3.00;;;2.72;;
14292;SDS011;62290;59.420;17.842;2022-10-16T08:01:17;3.42;;;2.42;;
14292;SDS011;62290;59.420;17.842;2022-10-16T08:03:47;3.85;;;2.38;;
14292;SDS011;62290;59.420;17.842;2022-10-16T08:06:18;2.60;;;2.28;;
14292;SDS011;62290;59.420;17.842;2022-10-16T08:08:53;5.22;;;2.47;;
14292;SDS011;62290;59.420;17.842;2022-10-16T08:11:21;4.55;;;2.47;;
14292;SDS011;62290;59.420;17.842;2022-10-16T08:13:49;2.78;;;2.40;;
14292;SDS011;62290;59.420;17.842;2022-10-16T08:16:17;3.63;;;2.20;;
14292;SDS011;62290;59.420;17.842;2022-10-16T08:18:45;2.15;;;1.95;;
14292;SDS011;62290;59.420;17.842;2022-10-16T08:21:14;2.75;;;2.47;;
14292;SDS011;62290;59.420;17.842;2022-10-16T08:23:48;2.30;;;2.10;;
14292;SDS011;62290;59.420;17.842;2022-10-16T08:26:24;7.28;;;2.20;;
14292;SDS011;62290;59.420;17.842;2022-10-16T08:28:53;2.33;;;2.10;;
14292;SDS011;62290;59.420;17.842;2022-10-16T08:31:21;5.30;;;2.20;;
14292;SDS011;62290;59.420;17.842;2022-10-16T08:33:49;3.55;;;2.20;;
14292;SDS011;62290;59.420;17.842;2022-10-16T08:36:18;3.00;;;2.38;;
14292;SDS011;62290;59.420;17.842;2022-10-16T08:38:48;3.05;;;2.35;;
14292;SDS011;62290;59.420;17.842;2022-10-16T08:41:22;5.35;;;2.40;;
14292;SDS011;62290;59.420;17.842;2022-10-16T08:44:07;2.58;;;2.05;;
14292;SDS011;62290;59.420;17.842;2022-10-16T08:46:53;3.83;;;1.98;;
14292;SDS011;62290;59.420;17.842;2022-10-16T08:49:30;2.53;;;2.03;;
14292;SDS011;62290;59.420;17.842;2022-10-16T08:51:58;3.10;;;2.05;;
14292;SDS011;62290;59.420;17.842;2022-10-16T08:54:30;3.58;;;2.80;;
14292;SDS011;62290;59.420;17.842;2022-10-16T08:57:07;2.78;;;2.50;;
14292;SDS011;62290;59.420;17.842;2022-10-16T08:59:38;2.67;;;2.20;;
14292;SDS011;62290;59.420;17.842;2022-10-16T09:02:13;3.08;;;2.47;;
14292;SDS011;62290;59.420;17.842;2022-10-16T09:04:58;3.25;;;2.30;;
14292;SDS011;62290;59.420;17.842;2022-10-16T09:07:50;4.43;;;2.58;;
14292;SDS011;62290;59.420;17.842;2022-10-16T09:10:35;3.85;;;2.05;;
14292;SDS011;62290;59.420;17.842;2022-10-16T09:13:11;3.13;;;2.22;;
14292;SDS011;62290;59.420;17.842;2022-10-16T09:15:47;4.25;;;2.13;;
14292;SDS011;62290;59.420;17.842;2022-10-16T09:18:24;3.60;;;2.10;;
14292;SDS011;62290;59.420;17.842;2022-10-16T09:20:59;3.58;;;1.80;;
14292;SDS011;62290;59.420;17.842;2022-10-16T09:23:35;3.88;;;2.15;;
14292;SDS011;62290;59.420;17.842;2022-10-16T09:26:09;23.52;;;15.60;;
14292;SDS011;62290;59.420;17.842;2022-10-16T09:28:39;45.53;;;27.30;;
14292;SDS011;62290;59.420;17.842;2022-10-16T09:31:09;49.88;;;27.70;;
14292;SDS011;62290;59.420;17.842;2022-10-16T09:33:42;40.30;;;25.00;;
14292;SDS011;62290;59.420;17.842;2022-10-16T09:36:12;31.45;;;18.88;;
14292;SDS011;62290;59.420;17.842;2022-10-16T09:38:40;22.40;;;13.68;;
14292;SDS011;62290;59.420;17.842;2022-10-16T09:41:15;20.38;;;10.93;;
14292;SDS011;62290;59.420;17.842;2022-10-16T09:43:47;13.60;;;8.77;;
14292;SDS011;62290;59.420;17.842;2022-10-16T09:46:24;12.35;;;6.85;;
14292;SDS011;62290;59.420;17.842;2022-10-16T09:48:56;11.32;;;6.28;;
14292;SDS011;62290;59.420;17.842;2022-10-16T09:51:26;11.85;;;5.15;;
14292;SDS011;62290;59.420;17.842;2022-10-16T09:53:57;7.63;;;4.63;;
14292;SDS011;62290;59.420;17.842;2022-10-16T09:56:29;6.38;;;3.92;;
14292;SDS011;62290;59.420;17.842;2022-10-16T09:58:59;6.25;;;3.47;;
14292;SDS011;62290;59.420;17.842;2022-10-16T10:01:30;5.78;;;3.30;;
14292;SDS011;62290;59.420;17.842;2022-10-16T10:04:04;6.53;;;3.65;;
14292;SDS011;62290;59.420;17.842;2022-10-16T10:06:33;5.28;;;3.28;;
14292;SDS011;62290;59.420;17.842;2022-10-16T10:09:05;7.53;;;3.10;;
14292;SDS011;62290;59.420;17.842;2022-10-16T10:11:44;9.65;;;3.20;;
14292;SDS011;62290;59.420;17.842;2022-10-16T10:14:19;6.50;;;2.17;;
14292;SDS011;62290;59.420;17.842;2022-10-16T10:16:50;3.55;;;2.25;;
14292;SDS011;62290;59.420;17.842;2022-10-16T10:19:20;5.57;;;2.40;;
14292;SDS011;62290;59.420;17.842;2022-10-16T10:21:53;7.03;;;1.90;;
14292;SDS011;62290;59.420;17.842;2022-10-16T10:24:21;4.97;;;2.35;;
14292;SDS011;62290;59.420;17.842;2022-10-16T10:26:53;4.78;;;2.10;;
14292;SDS011;62290;59.420;17.842;2022-10-16T10:29:36;4.07;;;1.90;;
14292;SDS011;62290;59.420;17.842;2022-10-16T10:32:18;4.20;;;1.90;;
14292;SDS011;62290;59.420;17.842;2022-10-16T10:35:01;5.85;;;2.10;;
14292;SDS011;62290;59.420;17.842;2022-10-16T10:37:48;4.32;;;2.30;;
14292;SDS011;62290;59.420;17.842;2022-10-16T10:40:29;4.75;;;2.05;;
14292;SDS011;62290;59.420;17.842;2022-10-16T10:43:10;3.22;;;1.80;;
14292;SDS011;62290;59.420;17.842;2022-10-16T10:45:51;9.43;;;2.35;;
14292;SDS011;62290;59.420;17.842;2022-10-16T10:48:31;15.27;;;2.75;;
14292;SDS011;62290;59.420;17.842;2022-10-16T10:51:16;18.88;;;3.00;;
14292;SDS011;62290;59.420;17.842;2022-10-16T10:53:53;16.65;;;2.75;;
14292;SDS011;62290;59.420;17.842;2022-10-16T10:56:39;8.10;;;2.38;;
14292;SDS011;62290;59.420;17.842;2022-10-16T11:02:30;9.23;;;2.75;;
14292;SDS011;62290;59.420;17.842;2022-10-16T11:07:58;7.03;;;1.92;;
14292;SDS011;62290;59.420;17.842;2022-10-16T11:10:30;7.53;;;2.08;;
14292;SDS011;62290;59.420;17.842;2022-10-16T11:13:08;5.22;;;1.80;;
14292;SDS011;62290;59.420;17.842;2022-10-16T11:15:47;10.13;;;1.67;;
14292;SDS011;62290;59.420;17.842;2022-10-16T11:18:18;7.00;;;2.33;;
14292;SDS011;62290;59.420;17.842;2022-10-16T11:20:49;10.27;;;1.90;;
14292;SDS011;62290;59.420;17.842;2022-10-16T11:23:22;7.13;;;1.50;;
14292;SDS011;62290;59.420;17.842;2022-10-16T11:25:52;5.75;;;1.73;;
14292;SDS011;62290;59.420;17.842;2022-10-16T11:28:25;5.25;;;1.60;;
14292;SDS011;62290;59.420;17.842;2022-10-16T11:30:59;5.15;;;1.83;;
14292;SDS011;62290;59.420;17.842;2022-10-16T11:33:32;6.07;;;1.65;;
14292;SDS011;62290;59.420;17.842;2022-10-16T11:36:09;5.53;;;1.70;;
14292;SDS011;62290;59.420;17.842;2022-10-16T11:38:43;3.90;;;1.60;;
14292;SDS011;62290;59.420;17.842;2022-10-16T11:41:19;3.45;;;1.75;;
14292;SDS011;62290;59.420;17.842;2022-10-16T11:43:53;6.20;;;1.50;;
14292;SDS011;62290;59.420;17.842;2022-10-16T11:46:32;7.50;;;1.65;;
14292;SDS011;62290;59.420;17.842;2022-10-16T11:49:26;6.80;;;2.40;;
14292;SDS011;62290;59.420;17.842;2022-10-16T11:51:59;2.85;;;1.30;;
14292;SDS011;62290;59.420;17.842;2022-10-16T11:54:44;3.55;;;1.55;;
14292;SDS011;62290;59.420;17.842;2022-10-16T11:57:24;7.40;;;2.50;;
14292;SDS011;62290;59.420;17.842;2022-10-16T11:59:56;8.18;;;2.30;;
14292;SDS011;62290;59.420;17.842;2022-10-16T12:02:43;9.60;;;2.10;;
14292;SDS011;62290;59.420;17.842;2022-10-16T12:05:19;5.85;;;2.00;;
14292;SDS011;62290;59.420;17.842;2022-10-16T12:07:55;3.50;;;1.70;;
14292;SDS011;62290;59.420;17.842;2022-10-16T12:10:31;5.72;;;2.03;;
14292;SDS011;62290;59.420;17.842;2022-10-16T12:16:03;3.92;;;1.95;;
14292;SDS011;62290;59.420;17.842;2022-10-16T12:18:48;5.25;;;1.88;;
14292;SDS011;62290;59.420;17.842;2022-10-16T12:21:16;6.03;;;2.03;;
14292;SDS011;62290;59.420;17.842;2022-10-16T12:23:49;4.47;;;1.63;;
14292;SDS011;62290;59.420;17.842;2022-10-16T12:26:24;5.47;;;1.73;;
14292;SDS011;62290;59.420;17.842;2022-10-16T12:28:54;5.03;;;1.88;;
14292;SDS011;62290;59.420;17.842;2022-10-16T12:31:23;6.13;;;2.72;;
14292;SDS011;62290;59.420;17.842;2022-10-16T12:34:26;5.50;;;1.83;;
14292;SDS011;62290;59.420;17.842;2022-10-16T12:37:06;4.65;;;1.50;;
14292;SDS011;62290;59.420;17.842;2022-10-16T12:39:37;2.35;;;1.85;;
14292;SDS011;62290;59.420;17.842;2022-10-16T12:42:17;6.28;;;2.05;;
14292;SDS011;62290;59.420;17.842;2022-10-16T12:44:49;6.22;;;1.77;;
14292;SDS011;62290;59.420;17.842;2022-10-16T12:47:21;3.33;;;1.90;;
14292;SDS011;62290;59.420;17.842;2022-10-16T12:49:52;4.82;;;1.85;;
14292;SDS011;62290;59.420;17.842;2022-10-16T12:52:29;5.10;;;2.00;;
14292;SDS011;62290;59.420;17.842;2022-10-16T12:55:04;3.17;;;1.70;;
14292;SDS011;62290;59.420;17.842;2022-10-16T12:57:37;4.45;;;2.30;;
14292;SDS011;62290;59.420;17.842;2022-10-16T13:00:17;5.07;;;2.20;;
14292;SDS011;62290;59.420;17.842;2022-10-16T13:03:02;3.72;;;1.90;;
14292;SDS011;62290;59.420;17.842;2022-10-16T13:05:57;4.35;;;1.85;;
14292;SDS011;62290;59.420;17.842;2022-10-16T13:08:39;7.72;;;2.10;;
14292;SDS011;62290;59.420;17.842;2022-10-16T13:11:23;5.20;;;2.03;;
14292;SDS011;62290;59.420;17.842;2022-10-16T13:14:09;3.05;;;1.60;;
14292;SDS011;62290;59.420;17.842;2022-10-16T13:16:50;7.28;;;2.20;;
14292;SDS011;62290;59.420;17.842;2022-10-16T13:19:27;4.88;;;2.10;;
14292;SDS011;62290;59.420;17.842;2022-10-16T13:22:05;3.35;;;1.70;;
14292;SDS011;62290;59.420;17.842;2022-10-16T13:24:47;2.58;;;1.80;;
14292;SDS011;62290;59.420;17.842;2022-10-16T13:27:25;6.10;;;2.08;;
14292;SDS011;62290;59.420;17.842;2022-10-16T13:30:02;3.45;;;1.80;;
14292;SDS011;62290;59.420;17.842;2022-10-16T13:32:39;4.85;;;1.95;;
14292;SDS011;62290;59.420;17.842;2022-10-16T13:35:18;4.85;;;1.95;;
14292;SDS011;62290;59.420;17.842;2022-10-16T13:37:48;3.08;;;1.77;;
14292;SDS011;62290;59.420;17.842;2022-10-16T13:40:21;3.25;;;1.75;;
14292;SDS011;62290;59.420;17.842;2022-10-16T13:42:51;2.05;;;1.35;;
14292;SDS011;62290;59.420;17.842;2022-10-16T13:45:21;3.33;;;2.03;;
14292;SDS011;62290;59.420;17.842;2022-10-16T13:48:01;1.77;;;1.63;;
14292;SDS011;62290;59.420;17.842;2022-10-16T13:50:29;2.83;;;1.45;;
14292;SDS011;62290;59.420;17.842;2022-10-16T13:53:05;2.60;;;1.52;;
14292;SDS011;62290;59.420;17.842;2022-10-16T13:55:34;2.15;;;1.48;;
14292;SDS011;62290;59.420;17.842;2022-10-16T13:58:05;4.20;;;1.67;;
14292;SDS011;62290;59.420;17.842;2022-10-16T14:00:35;2.00;;;1.40;;
14292;SDS011;62290;59.420;17.842;2022-10-16T14:03:04;2.72;;;1.20;;
14292;SDS011;62290;59.420;17.842;2022-10-16T14:05:35;6.53;;;1.70;;
14292;SDS011;62290;59.420;17.842;2022-10-16T14:08:03;3.13;;;1.50;;
14292;SDS011;62290;59.420;17.842;2022-10-16T14:10:33;2.03;;;1.20;;
14292;SDS011;62290;59.420;17.842;2022-10-16T14:13:03;1.95;;;1.58;;
14292;SDS011;62290;59.420;17.842;2022-10-16T14:15:35;3.47;;;1.52;;
14292;SDS011;62290;59.420;17.842;2022-10-16T14:18:04;2.97;;;1.23;;
14292;SDS011;62290;59.420;17.842;2022-10-16T14:20:33;3.78;;;1.45;;
14292;SDS011;62290;59.420;17.842;2022-10-16T14:23:02;3.00;;;1.30;;
14292;SDS011;62290;59.420;17.842;2022-10-16T14:25:33;2.03;;;0.93;;
14292;SDS011;62290;59.420;17.842;2022-10-16T14:28:02;2.53;;;1.30;;
14292;SDS011;62290;59.420;17.842;2022-10-16T14:30:33;2.78;;;1.10;;
14292;SDS011;62290;59.420;17.842;2022-10-16T14:33:03;5.03;;;1.23;;
14292;SDS011;62290;59.420;17.842;2022-10-16T14:35:32;1.42;;;1.02;;
14292;SDS011;62290;59.420;17.842;2022-10-16T14:38:03;3.97;;;1.50;;
14292;SDS011;62290;59.420;17.842;2022-10-16T14:40:34;3.38;;;1.05;;
14292;SDS011;62290;59.420;17.842;2022-10-16T14:43:04;1.27;;;1.08;;
14292;SDS011;62290;59.420;17.842;2022-10-16T14:45:33;2.00;;;1.17;;
14292;SDS011;62290;59.420;17.842;2022-10-16T14:48:04;2.58;;;1.35;;
14292;SDS011;62290;59.420;17.842;2022-10-16T14:50:33;2.60;;;1.10;;
14292;SDS011;62290;59.420;17.842;2022-10-16T14:53:01;2.38;;;0.95;;
14292;SDS011;62290;59.420;17.842;2022-10-16T14:55:29;5.95;;;3.92;;
14292;SDS011;62290;59.420;17.842;2022-10-16T14:57:58;3.55;;;1.90;;
14292;SDS011;62290;59.420;17.842;2022-10-16T15:00:26;4.45;;;1.88;;
14292;SDS011;62290;59.420;17.842;2022-10-16T15:02:54;2.63;;;1.63;;
14292;SDS011;62290;59.420;17.842;2022-10-16T15:05:23;3.38;;;1.58;;
14292;SDS011;62290;59.420;17.842;2022-10-16T15:07:53;6.47;;;2.08;;
14292;SDS011;62290;59.420;17.842;2022-10-16T15:10:22;4.80;;;1.40;;